createdAt,value
2018-11-29T00:00:49.016Z,96246.38
2018-11-29T00:03:19.272Z,96250.28
2018-11-29T00:05:49.181Z,96249.39
2018-11-29T00:08:19.100Z,96244.15
2018-11-29T00:10:48.965Z,96244.70
2018-11-29T00:13:18.810Z,96238.12
2018-11-29T00:15:49.208Z,96239.50
2018-11-29T00:18:19.100Z,96236.54
2018-11-29T00:20:49.019Z,96238.66
2018-11-29T00:23:18.851Z,96238.28
2018-11-29T00:25:48.765Z,96235.26
2018-11-29T00:28:18.682Z,96233.71
2018-11-29T00:30:48.543Z,96230.84
2018-11-29T00:33:18.489Z,96236.20
2018-11-29T00:35:48.431Z,96235.77
2018-11-29T00:38:18.303Z,96231.41
2018-11-29T00:40:48.221Z,96237.08
2018-11-29T00:43:18.081Z,96246.58
2018-11-29T00:45:48.034Z,96251.33
2018-11-29T00:48:17.969Z,96248.70
2018-11-29T00:50:47.835Z,96256.80
2018-11-29T00:53:17.763Z,96252.63
2018-11-29T00:55:47.729Z,96253.50
2018-11-29T00:58:17.618Z,96248.94
2018-11-29T01:00:47.465Z,96242.02
2018-11-29T01:03:17.377Z,96239.83
2018-11-29T01:05:47.423Z,96232.34
2018-11-29T01:08:17.394Z,96238.97
2018-11-29T01:10:47.274Z,96237.69
2018-11-29T01:13:17.162Z,96236.46
2018-11-29T01:15:47.027Z,96245.64
2018-11-29T01:18:16.928Z,96248.52
2018-11-29T01:20:46.907Z,96242.17
2018-11-29T01:23:16.878Z,96237.93
2018-11-29T01:25:46.717Z,96241.72
2018-11-29T01:28:16.569Z,96243.53
2018-11-29T01:30:46.429Z,96250.13
2018-11-29T01:33:16.308Z,96246.22
2018-11-29T01:35:46.213Z,96238.33
2018-11-29T01:38:16.082Z,96244.42
2018-11-29T01:40:45.972Z,96248.00
2018-11-29T01:43:15.810Z,96247.23
2018-11-29T01:45:45.662Z,96246.47
2018-11-29T01:48:15.552Z,96236.19
2018-11-29T01:50:45.429Z,96246.52
2018-11-29T01:53:15.302Z,96238.31
2018-11-29T01:55:45.177Z,96238.81
2018-11-29T01:58:15.390Z,96241.78
2018-11-29T02:00:45.247Z,96251.20
2018-11-29T02:03:15.121Z,96247.47
2018-11-29T02:05:44.942Z,96240.17
2018-11-29T02:08:14.846Z,96233.34
2018-11-29T02:10:51.157Z,96228.27
2018-11-29T02:13:21.181Z,96226.24
2018-11-29T02:15:51.404Z,96231.84
2018-11-29T02:18:21.225Z,96230.38
2018-11-29T02:20:51.147Z,96225.55
2018-11-29T02:23:21.036Z,96217.46
2018-11-29T02:25:51.336Z,96212.45
2018-11-29T02:28:21.197Z,96202.58
2018-11-29T02:30:51.107Z,96199.49
2018-11-29T02:33:21.038Z,96185.20
2018-11-29T02:35:50.888Z,96173.48
2018-11-29T02:38:21.551Z,96171.75
2018-11-29T02:40:51.430Z,96171.30
2018-11-29T02:43:21.351Z,96175.81
2018-11-29T02:45:51.499Z,96176.44
2018-11-29T02:48:21.401Z,96180.86
2018-11-29T02:50:51.314Z,96173.60
2018-11-29T02:53:21.140Z,96177.78
2018-11-29T02:55:51.511Z,96184.65
2018-11-29T02:58:21.369Z,96182.27
2018-11-29T03:00:51.301Z,96180.09
2018-11-29T03:03:21.227Z,96187.21
2018-11-29T03:05:51.547Z,96185.03
2018-11-29T03:08:21.451Z,96182.79
2018-11-29T03:10:51.586Z,96179.90
2018-11-29T03:13:21.467Z,96176.25
2018-11-29T03:15:51.311Z,96179.71
2018-11-29T03:18:21.201Z,96176.06
2018-11-29T03:20:51.079Z,96166.73
2018-11-29T03:23:20.916Z,96155.26
2018-11-29T03:25:51.699Z,96159.27
2018-11-29T03:28:21.552Z,96158.42
2018-11-29T03:30:51.445Z,96155.94
2018-11-29T03:33:21.567Z,96153.03
2018-11-29T03:35:51.988Z,96141.06
2018-11-29T03:38:21.914Z,96145.02
2018-11-29T03:40:51.880Z,96140.47
2018-11-29T03:43:21.771Z,96135.86
2018-11-29T03:45:51.665Z,96133.48
2018-11-29T03:48:21.545Z,96121.56
2018-11-29T03:50:51.500Z,96127.53
2018-11-29T03:53:21.360Z,96128.94
2018-11-29T03:55:51.293Z,96135.08
2018-11-29T03:58:21.154Z,96131.50
2018-11-29T04:00:51.001Z,96123.55
2018-11-29T04:03:20.896Z,96122.90
2018-11-29T04:05:50.941Z,96130.27
2018-11-29T04:08:20.785Z,96123.86
2018-11-29T04:10:50.655Z,96116.66
2018-11-29T04:13:20.560Z,96115.00
2018-11-29T04:15:50.481Z,96112.05
2018-11-29T04:18:20.388Z,96117.62
2018-11-29T04:20:50.258Z,96108.20
2018-11-29T04:23:20.144Z,96114.43
2018-11-29T04:25:50.029Z,96117.27
2018-11-29T04:28:19.970Z,96117.39
2018-11-29T04:30:49.846Z,96114.98
2018-11-29T04:33:19.700Z,96118.00
2018-11-29T04:35:49.620Z,96106.23
2018-11-29T04:38:19.453Z,96108.03
2018-11-29T04:40:49.349Z,96105.06
2018-11-29T04:43:19.203Z,96098.02
2018-11-29T04:46:00.424Z,96102.89
2018-11-29T04:48:30.257Z,96095.70
2018-11-29T04:51:00.172Z,96092.36
2018-11-29T04:53:30.045Z,96087.27
2018-11-29T04:55:59.918Z,96077.79
2018-11-29T04:58:29.829Z,96078.18
2018-11-29T05:00:59.707Z,96071.67
2018-11-29T05:03:29.625Z,96068.87
2018-11-29T05:05:59.761Z,96067.41
2018-11-29T05:08:29.698Z,96066.13
2018-11-29T05:10:59.550Z,96069.33
2018-11-29T05:13:29.445Z,96070.67
2018-11-29T05:15:59.594Z,96077.60
2018-11-29T05:18:29.518Z,96073.30
2018-11-29T05:20:59.423Z,96067.67
2018-11-29T05:23:29.348Z,96077.20
2018-11-29T05:25:59.243Z,96077.16
2018-11-29T05:28:29.145Z,96075.09
2018-11-29T05:30:59.006Z,96065.80
2018-11-29T05:33:28.912Z,96064.62
2018-11-29T05:35:58.911Z,96067.65
2018-11-29T05:38:28.793Z,96068.03
2018-11-29T05:40:58.914Z,96070.14
2018-11-29T05:43:28.745Z,96068.59
2018-11-29T05:45:59.082Z,96069.55
2018-11-29T05:48:28.972Z,96073.89
2018-11-29T05:50:58.854Z,96076.89
2018-11-29T05:53:28.712Z,96080.25
2018-11-29T05:55:58.702Z,96075.91
2018-11-29T05:58:28.622Z,96074.94
2018-11-29T06:01:00.878Z,96075.08
2018-11-29T06:03:30.699Z,96066.47
2018-11-29T06:06:00.637Z,96068.16
2018-11-29T06:08:30.522Z,96064.75
2018-11-29T06:11:00.406Z,96059.56
2018-11-29T06:13:30.623Z,96065.19
2018-11-29T06:16:00.494Z,96059.61
2018-11-29T06:18:30.369Z,96051.98
2018-11-29T06:21:00.271Z,96064.69
2018-11-29T06:23:30.113Z,96063.97
2018-11-29T06:26:00.156Z,96068.66
2018-11-29T06:28:29.993Z,96068.47
2018-11-29T06:30:59.861Z,96069.89
2018-11-29T06:33:29.705Z,96076.73
2018-11-29T06:36:02.062Z,96073.61
2018-11-29T06:38:29.500Z,96077.06
2018-11-29T06:40:59.422Z,96075.00
2018-11-29T06:43:29.330Z,96067.81
2018-11-29T06:45:59.168Z,96059.63
2018-11-29T06:48:29.085Z,96050.63
2018-11-29T06:50:58.978Z,96048.97
2018-11-29T06:53:34.246Z,96045.52
2018-11-29T06:56:04.146Z,96042.95
2018-11-29T06:58:34.035Z,96033.52
2018-11-29T07:01:03.918Z,96027.56
2018-11-29T07:03:33.842Z,96027.61
2018-11-29T07:06:03.702Z,96022.15
2018-11-29T07:08:33.567Z,96018.80
2018-11-29T07:11:03.422Z,96022.92
2018-11-29T07:13:33.284Z,96037.81
2018-11-29T07:16:03.170Z,96040.98
2018-11-29T07:18:33.046Z,96039.55
2018-11-29T07:21:14.254Z,96039.70
2018-11-29T07:23:44.137Z,96049.30
2018-11-29T07:26:13.982Z,96040.59
2018-11-29T07:28:43.841Z,96043.17
2018-11-29T07:31:13.738Z,96036.86
2018-11-29T07:33:43.866Z,96042.22
2018-11-29T07:36:13.728Z,96037.30
2018-11-29T07:38:43.624Z,96041.05
2018-11-29T07:41:13.511Z,96040.20
2018-11-29T07:43:43.413Z,96028.75
2018-11-29T07:46:13.286Z,96025.50
2018-11-29T07:48:43.213Z,96019.09
2018-11-29T07:51:13.066Z,96018.75
2018-11-29T07:53:43.029Z,96013.67
2018-11-29T07:56:12.913Z,96007.53
2018-11-29T07:58:42.928Z,96011.34
2018-11-29T08:01:13.190Z,96010.36
2018-11-29T08:03:43.226Z,96002.46
2018-11-29T08:06:13.193Z,96009.86
2018-11-29T08:08:43.089Z,96007.78
2018-11-29T08:11:12.976Z,96009.81
2018-11-29T08:13:42.888Z,96016.82
2018-11-29T08:16:12.757Z,96016.62
2018-11-29T08:18:42.641Z,96023.67
2018-11-29T08:21:12.535Z,96015.56
2018-11-29T08:23:42.447Z,96014.41
2018-11-29T08:26:12.294Z,96006.87
2018-11-29T08:28:42.216Z,96007.44
2018-11-29T08:31:12.091Z,96006.11
2018-11-29T08:33:41.984Z,96004.39
2018-11-29T08:36:11.891Z,95999.78
2018-11-29T08:38:41.823Z,96000.98
2018-11-29T08:41:11.681Z,95999.37
2018-11-29T08:43:41.590Z,95994.34
2018-11-29T08:46:11.492Z,95991.27
2018-11-29T08:48:41.370Z,95987.48
2018-11-29T08:51:11.276Z,95982.42
2018-11-29T08:53:41.097Z,95973.49
2018-11-29T08:56:10.976Z,95963.72
2018-11-29T08:58:40.824Z,95961.55
2018-11-29T09:01:10.720Z,95956.89
2018-11-29T09:03:40.554Z,95954.76
2018-11-29T09:06:10.416Z,95953.10
2018-11-29T09:08:40.314Z,95945.52
2018-11-29T09:11:10.207Z,95949.00
2018-11-29T09:13:40.576Z,95954.35
2018-11-29T09:16:11.017Z,95957.33
2018-11-29T09:18:41.487Z,95956.99
2018-11-29T09:21:11.513Z,95955.00
2018-11-29T09:23:41.421Z,95949.84
2018-11-29T09:26:11.309Z,95948.66
2018-11-29T09:28:41.707Z,95944.36
2018-11-29T09:31:11.572Z,95937.08
2018-11-29T09:33:41.472Z,95939.31
2018-11-29T09:36:11.375Z,95944.08
2018-11-29T09:38:41.368Z,95940.74
2018-11-29T09:41:11.230Z,95938.92
2018-11-29T09:43:41.114Z,95927.44
2018-11-29T09:46:10.979Z,95912.53
2018-11-29T09:48:40.843Z,95912.17
2018-11-29T09:51:10.732Z,95902.72
2018-11-29T09:53:40.598Z,95902.84
2018-11-29T09:56:10.550Z,95882.70
2018-11-29T09:58:40.609Z,95886.16
2018-11-29T10:01:10.503Z,95883.70
2018-11-29T10:03:40.369Z,95888.03
2018-11-29T10:06:10.319Z,95894.97
2018-11-29T10:08:40.179Z,95895.42
2018-11-29T10:11:10.085Z,95905.72
2018-11-29T10:13:46.052Z,95901.01
2018-11-29T10:16:09.870Z,95896.77
2018-11-29T10:18:39.967Z,95900.30
2018-11-29T10:21:10.111Z,95903.36
2018-11-29T10:23:43.727Z,95896.53
2018-11-29T10:26:13.745Z,95892.70
2018-11-29T10:28:43.645Z,95890.56
2018-11-29T10:31:13.589Z,95883.30
2018-11-29T10:33:43.506Z,95880.75
2018-11-29T10:36:13.309Z,95876.06
2018-11-29T10:38:43.211Z,95873.46
2018-11-29T10:41:13.051Z,95869.63
2018-11-29T10:43:42.893Z,95873.94
2018-11-29T10:46:12.823Z,95873.03
2018-11-29T10:48:42.749Z,95859.50
2018-11-29T10:51:12.618Z,95848.38
2018-11-29T10:53:42.759Z,95844.83
2018-11-29T10:56:12.618Z,95833.42
2018-11-29T10:58:42.465Z,95832.03
2018-11-29T11:01:17.754Z,95827.50
2018-11-29T11:03:47.618Z,95834.80
2018-11-29T11:06:17.498Z,95820.20
2018-11-29T11:08:47.363Z,95815.98
2018-11-29T11:11:17.272Z,95803.56
2018-11-29T11:13:47.171Z,95801.51
2018-11-29T11:16:17.105Z,95808.67
2018-11-29T11:18:46.952Z,95804.58
2018-11-29T11:21:16.824Z,95802.41
2018-11-29T11:23:46.701Z,95792.94
2018-11-29T11:26:16.588Z,95798.75
2018-11-29T11:28:46.455Z,95805.87
2018-11-29T11:31:16.342Z,95813.75
2018-11-29T11:33:46.430Z,95803.50
2018-11-29T11:36:16.315Z,95789.51
2018-11-29T11:38:46.239Z,95786.20
2018-11-29T11:41:16.116Z,95780.38
2018-11-29T11:43:46.014Z,95770.98
2018-11-29T11:46:15.920Z,95775.41
2018-11-29T11:48:46.054Z,95771.52
2018-11-29T11:51:15.728Z,95758.65
2018-11-29T11:53:45.744Z,95747.61
2018-11-29T11:56:15.689Z,95745.81
2018-11-29T11:58:45.845Z,95744.43
2018-11-29T12:01:15.762Z,95740.73
2018-11-29T12:03:45.631Z,95739.16
2018-11-29T12:06:15.888Z,95738.37
2018-11-29T12:08:45.787Z,95744.52
2018-11-29T12:11:15.977Z,95742.94
2018-11-29T12:13:46.351Z,95744.78
2018-11-29T12:16:16.262Z,95744.67
2018-11-29T12:18:46.200Z,95742.80
2018-11-29T12:21:16.134Z,95739.87
2018-11-29T12:23:45.990Z,95743.84
2018-11-29T12:26:16.379Z,95737.92
2018-11-29T12:28:46.264Z,95741.58
2018-11-29T12:31:16.147Z,95741.06
2018-11-29T12:33:46.090Z,95739.55
2018-11-29T12:36:16.850Z,95735.48
2018-11-29T12:38:47.064Z,95736.61
2018-11-29T12:41:17.396Z,95737.72
2018-11-29T12:43:47.246Z,95729.41
2018-11-29T12:46:17.204Z,95728.39
2018-11-29T12:48:47.085Z,95731.58
2018-11-29T12:51:17.635Z,95732.34
2018-11-29T12:53:48.346Z,95725.38
2018-11-29T12:56:18.250Z,95719.02
2018-11-29T12:58:49.105Z,95716.52
2018-11-29T13:01:18.170Z,95706.69
2018-11-29T13:03:48.105Z,95714.09
2018-11-29T13:06:18.025Z,95714.05
2018-11-29T13:08:47.920Z,95704.79
2018-11-29T13:11:17.874Z,95709.27
2018-11-29T13:13:47.779Z,95701.59
2018-11-29T13:16:17.687Z,95701.25
2018-11-29T13:18:47.662Z,95704.89
2018-11-29T13:21:17.524Z,95695.37
2018-11-29T13:23:47.615Z,95694.92
2018-11-29T13:26:17.474Z,95694.77
2018-11-29T13:28:47.406Z,95686.97
2018-11-29T13:31:17.299Z,95686.06
2018-11-29T13:33:47.332Z,95687.84
2018-11-29T13:36:17.330Z,95680.09
2018-11-29T13:38:47.280Z,95678.44
2018-11-29T13:41:17.361Z,95673.25
2018-11-29T13:43:47.857Z,95676.90
2018-11-29T13:46:18.042Z,95682.50
2018-11-29T13:48:47.950Z,95683.88
2018-11-29T13:51:17.898Z,95680.01
2018-11-29T13:53:48.293Z,95678.32
2018-11-29T13:56:18.249Z,95686.52
2018-11-29T13:58:48.184Z,95679.30
2018-11-29T14:01:18.380Z,95680.16
2018-11-29T14:03:48.286Z,95680.66
2018-11-29T14:06:18.222Z,95675.48
2018-11-29T14:08:48.132Z,95672.05
2018-11-29T14:11:18.136Z,95665.23
2018-11-29T14:13:48.074Z,95674.32
2018-11-29T14:16:18.078Z,95674.34
2018-11-29T14:18:48.602Z,95664.47
2018-11-29T14:21:18.691Z,95669.69
2018-11-29T14:23:48.706Z,95667.23
2018-11-29T14:26:18.686Z,95667.66
2018-11-29T14:28:49.118Z,95660.77
2018-11-29T14:31:19.057Z,95665.58
2018-11-29T14:33:49.133Z,95666.47
2018-11-29T14:36:20.095Z,95663.89
2018-11-29T14:38:50.078Z,95669.93
2018-11-29T14:41:20.051Z,95672.08
2018-11-29T14:43:49.990Z,95664.37
2018-11-29T14:46:20.758Z,95668.66
2018-11-29T14:48:50.898Z,95670.39
2018-11-29T14:51:20.885Z,95670.84
2018-11-29T14:53:51.255Z,95669.97
2018-11-29T14:56:21.235Z,95665.69
2018-11-29T14:58:51.234Z,95667.41
2018-11-29T15:01:21.270Z,95664.84
2018-11-29T15:03:51.167Z,95665.70
2018-11-29T15:06:21.096Z,95665.27
2018-11-29T15:08:51.384Z,95662.70
2018-11-29T15:11:22.271Z,95665.28
2018-11-29T15:13:53.152Z,95671.70
2018-11-29T15:16:23.073Z,95672.13
2018-11-29T15:18:53.139Z,95669.98
2018-11-29T15:21:23.503Z,95675.12
2018-11-29T15:23:54.678Z,95675.98
2018-11-29T15:26:24.680Z,95684.12
2018-11-29T15:28:55.383Z,95683.70
2018-11-29T15:31:25.521Z,95677.67
2018-11-29T15:33:56.910Z,95675.52
2018-11-29T15:36:26.809Z,95675.09
2018-11-29T15:38:57.244Z,95674.66
2018-11-29T15:41:27.231Z,95677.66
2018-11-29T15:43:57.129Z,95676.36
2018-11-29T15:46:27.255Z,95675.50
2018-11-29T15:48:57.428Z,95670.30
2018-11-29T15:51:27.894Z,95668.58
2018-11-29T15:53:57.865Z,95671.16
2018-11-29T15:56:27.846Z,95672.45
2018-11-29T15:58:57.798Z,95669.40
2018-11-29T16:01:27.869Z,95674.11
2018-11-29T16:03:57.943Z,95668.52
2018-11-29T16:06:28.056Z,95668.09
2018-11-29T16:08:57.933Z,95677.52
2018-11-29T16:11:28.321Z,95686.52
2018-11-29T16:13:58.717Z,95689.47
2018-11-29T16:16:28.696Z,95686.48
2018-11-29T16:19:03.701Z,95686.46
2018-11-29T16:21:28.541Z,95679.09
2018-11-29T16:23:58.439Z,95682.93
2018-11-29T16:26:29.026Z,95680.81
2018-11-29T16:28:58.921Z,95687.23
2018-11-29T16:31:29.693Z,95687.64
2018-11-29T16:33:59.724Z,95676.48
2018-11-29T16:36:29.862Z,95674.73
2018-11-29T16:38:59.794Z,95681.22
2018-11-29T16:41:29.762Z,95689.25
2018-11-29T16:43:59.607Z,95681.63
2018-11-29T16:46:30.041Z,95674.34
2018-11-29T16:49:02.768Z,95670.45
2018-11-29T16:51:29.945Z,95666.59
2018-11-29T16:53:59.839Z,95662.30
2018-11-29T16:56:29.727Z,95662.30
2018-11-29T16:58:59.816Z,95658.84
2018-11-29T17:01:30.542Z,95658.41
2018-11-29T17:04:00.456Z,95661.44
2018-11-29T17:06:30.521Z,95663.53
2018-11-29T17:09:00.575Z,95672.52
2018-11-29T17:11:30.656Z,95685.16
2018-11-29T17:14:00.659Z,95686.97
2018-11-29T17:16:30.563Z,95685.34
2018-11-29T17:19:00.552Z,95683.25
2018-11-29T17:21:30.808Z,95682.39
2018-11-29T17:24:00.739Z,95687.53
2018-11-29T17:26:30.657Z,95682.38
2018-11-29T17:29:01.171Z,95679.87
2018-11-29T17:31:31.071Z,95677.71
2018-11-29T17:34:01.103Z,95680.70
2018-11-29T17:36:31.501Z,95678.58
2018-11-29T17:39:02.245Z,95674.70
2018-11-29T17:41:32.162Z,95671.67
2018-11-29T17:44:02.103Z,95669.08
2018-11-29T17:46:32.449Z,95667.36
2018-11-29T17:49:02.446Z,95661.78
2018-11-29T17:51:32.362Z,95649.76
2018-11-29T17:54:02.326Z,95645.89
2018-11-29T17:56:32.255Z,95646.35
2018-11-29T17:59:02.874Z,95649.36
2018-11-29T18:01:32.177Z,95642.06
2018-11-29T18:04:02.132Z,95641.20
2018-11-29T18:06:33.045Z,95638.20
2018-11-29T18:09:03.105Z,95633.87
2018-11-29T18:11:33.533Z,95622.77
2018-11-29T18:14:03.935Z,95610.73
2018-11-29T18:16:34.043Z,95612.00
2018-11-29T18:19:04.113Z,95609.89
2018-11-29T18:21:34.048Z,95610.75
2018-11-29T18:24:04.112Z,95599.62
2018-11-29T18:26:34.105Z,95606.03
2018-11-29T18:29:04.117Z,95612.46
2018-11-29T18:31:34.176Z,95611.63
2018-11-29T18:34:04.157Z,95603.91
2018-11-29T18:36:35.305Z,95600.45
2018-11-29T18:39:08.200Z,95593.59
2018-11-29T18:41:38.093Z,95594.05
2018-11-29T18:44:08.019Z,95588.87
2018-11-29T18:46:38.003Z,95600.88
2018-11-29T18:49:30.482Z,95596.63
2018-11-29T18:52:03.780Z,95596.61
2018-11-29T18:54:34.698Z,95592.76
2018-11-29T18:57:03.705Z,95581.14
2018-11-29T18:59:33.668Z,95582.75
2018-11-29T19:02:03.783Z,95587.05
2018-11-29T19:04:33.809Z,95586.17
2018-11-29T19:07:03.786Z,95588.41
2018-11-29T19:09:33.837Z,95582.86
2018-11-29T19:12:03.775Z,95579.45
2018-11-29T19:14:33.748Z,95582.03
2018-11-29T19:17:03.712Z,95576.89
2018-11-29T19:19:33.733Z,95578.19
2018-11-29T19:22:03.757Z,95575.19
2018-11-29T19:24:33.717Z,95581.15
2018-11-29T19:27:03.658Z,95571.73
2018-11-29T19:29:33.672Z,95570.44
2018-11-29T19:32:04.568Z,95564.89
2018-11-29T19:34:34.626Z,95560.59
2018-11-29T19:37:04.785Z,95570.41
2018-11-29T19:39:34.849Z,95568.30
2018-11-29T19:42:04.971Z,95567.03
2018-11-29T19:44:35.166Z,95568.28
2018-11-29T19:47:05.430Z,95580.72
2018-11-29T19:49:35.523Z,95588.87
2018-11-29T19:52:05.722Z,95590.09
2018-11-29T19:54:35.737Z,95594.75
2018-11-29T19:57:06.314Z,95600.81
2018-11-29T19:59:37.390Z,95611.06
2018-11-29T20:02:07.631Z,95611.52
2018-11-29T20:04:37.618Z,95606.88
2018-11-29T20:07:07.690Z,95607.73
2018-11-29T20:09:37.796Z,95604.72
2018-11-29T20:12:08.069Z,95602.63
2018-11-29T20:33:44.341Z,95577.02
2018-11-29T20:36:14.891Z,95579.16
2018-11-29T20:38:45.752Z,95583.44
2018-11-29T20:41:17.223Z,95581.27
2018-11-29T20:43:47.823Z,95574.40
2018-11-29T20:46:18.378Z,95573.13
2018-11-29T20:48:49.345Z,95579.87
2018-11-29T20:51:20.875Z,95584.20
2018-11-29T20:53:51.076Z,95579.08
2018-11-29T20:56:21.855Z,95571.38
2018-11-29T20:58:51.829Z,95575.24
2018-11-29T21:01:21.891Z,95569.69
2018-11-29T21:03:52.166Z,95577.41
2018-11-29T21:06:22.184Z,95575.27
2018-11-29T21:08:52.214Z,95572.69
2018-11-29T21:11:22.436Z,95572.26
2018-11-29T21:13:52.439Z,95576.12
2018-11-29T21:16:23.007Z,95577.84
2018-11-29T21:18:53.042Z,95577.42
2018-11-29T21:21:23.135Z,95578.72
2018-11-29T21:23:53.096Z,95580.86
2018-11-29T21:26:23.137Z,95562.44
2018-11-29T21:28:53.387Z,95571.41
2018-11-29T21:31:23.488Z,95564.97
2018-11-29T21:33:53.500Z,95559.84
2018-11-29T21:36:23.487Z,95555.54
2018-11-29T21:38:53.574Z,95565.38
2018-11-29T21:41:23.561Z,95559.83
2018-11-29T21:43:53.500Z,95562.83
2018-11-29T21:46:24.205Z,95564.11
2018-11-29T21:48:54.175Z,95562.81
2018-11-29T21:51:25.231Z,95558.53
2018-11-29T21:53:55.359Z,95554.70
2018-11-29T21:56:26.726Z,95546.97
2018-11-29T21:58:57.139Z,95545.69
2018-11-29T22:01:27.568Z,95538.81
2018-11-29T22:03:57.886Z,95540.53
2018-11-29T22:06:28.428Z,95531.53
2018-11-29T22:08:58.940Z,95546.49
2018-11-29T22:11:29.677Z,95541.30
2018-11-29T22:13:59.995Z,95535.72
2018-11-29T22:16:30.555Z,95523.72
2018-11-29T22:19:00.798Z,95536.17
2018-11-29T22:21:31.172Z,95530.62
2018-11-29T22:24:01.690Z,95532.77
2018-11-29T22:26:32.941Z,95527.66
2018-11-29T22:29:03.126Z,95527.64
2018-11-29T22:31:33.598Z,95528.92
2018-11-29T22:34:03.916Z,95521.63
2018-11-29T22:36:34.301Z,95520.77
2018-11-29T22:39:05.731Z,95518.22
2018-11-29T22:41:35.783Z,95519.92
2018-11-29T22:44:06.409Z,95523.38
2018-11-29T22:46:36.911Z,95519.94
2018-11-29T22:49:07.430Z,95524.66
2018-11-29T22:51:37.352Z,95525.92
2018-11-29T22:54:07.250Z,95519.95
2018-11-29T22:56:37.346Z,95514.37
2018-11-29T22:59:08.019Z,95513.07
2018-11-29T23:01:38.269Z,95512.65
2018-11-29T23:04:08.220Z,95508.80
2018-11-29T23:06:38.179Z,95515.66
2018-11-29T23:09:10.181Z,95515.21
2018-11-29T23:11:40.031Z,95510.06
2018-11-29T23:14:09.915Z,95513.91
2018-11-29T23:16:39.759Z,95510.49
2018-11-29T23:19:09.799Z,95515.22
2018-11-29T23:21:39.960Z,95513.08
2018-11-29T23:24:10.062Z,95509.66
2018-11-29T23:26:39.922Z,95503.67
2018-11-29T23:29:09.788Z,95507.09
2018-11-29T23:31:39.649Z,95512.25
2018-11-29T23:34:09.468Z,95507.95
2018-11-29T23:36:39.382Z,95512.26
2018-11-29T23:39:09.297Z,95505.83
2018-11-29T23:41:39.394Z,95513.52
2018-11-29T23:44:09.408Z,95505.38
2018-11-29T23:46:39.377Z,95506.25
2018-11-29T23:49:09.350Z,95514.38
2018-11-29T23:51:39.264Z,95513.11
2018-11-29T23:54:09.156Z,95508.38
2018-11-29T23:56:39.107Z,95509.69
2018-11-29T23:59:08.989Z,95511.80
